sensor_id;sensor_type;location;lat;lon;timestamp;P1;durP1;ratioP1;P2;durP2;ratioP2
52306;SDS011;38249;48.920;12.882;2022-10-18T00:01:58;12.15;;;4.45;;
52306;SDS011;38249;48.920;12.882;2022-10-18T00:04:24;8.85;;;4.18;;
52306;SDS011;38249;48.920;12.882;2022-10-18T00:06:51;9.88;;;4.55;;
52306;SDS011;38249;48.920;12.882;2022-10-18T00:09:18;7.78;;;4.03;;
52306;SDS011;38249;48.920;12.882;2022-10-18T00:11:45;5.70;;;3.88;;
52306;SDS011;38249;48.920;12.882;2022-10-18T00:14:11;6.55;;;3.78;;
52306;SDS011;38249;48.920;12.882;2022-10-18T00:16:37;8.07;;;4.47;;
52306;SDS011;38249;48.920;12.882;2022-10-18T00:19:04;6.70;;;4.05;;
52306;SDS011;38249;48.920;12.882;2022-10-18T00:21:30;8.48;;;4.93;;
52306;SDS011;38249;48.920;12.882;2022-10-18T00:23:56;8.27;;;4.05;;
52306;SDS011;38249;48.920;12.882;2022-10-18T00:26:25;9.25;;;4.53;;
52306;SDS011;38249;48.920;12.882;2022-10-18T00:28:52;5.75;;;4.45;;
52306;SDS011;38249;48.920;12.882;2022-10-18T00:31:19;6.35;;;4.30;;
52306;SDS011;38249;48.920;12.882;2022-10-18T00:33:53;5.88;;;4.22;;
52306;SDS011;38249;48.920;12.882;2022-10-18T00:36:19;7.53;;;4.10;;
52306;SDS011;38249;48.920;12.882;2022-10-18T00:38:46;7.80;;;4.18;;
52306;SDS011;38249;48.920;12.882;2022-10-18T00:41:14;11.70;;;5.10;;
52306;SDS011;38249;48.920;12.882;2022-10-18T00:43:52;12.00;;;5.72;;
52306;SDS011;38249;48.920;12.882;2022-10-18T00:46:18;14.23;;;5.53;;
52306;SDS011;38249;48.920;12.882;2022-10-18T00:48:45;8.15;;;5.10;;
52306;SDS011;38249;48.920;12.882;2022-10-18T00:51:11;8.77;;;5.35;;
52306;SDS011;38249;48.920;12.882;2022-10-18T00:53:38;7.28;;;4.53;;
52306;SDS011;38249;48.920;12.882;2022-10-18T00:56:05;11.65;;;4.90;;
52306;SDS011;38249;48.920;12.882;2022-10-18T00:58:31;10.52;;;4.57;;
52306;SDS011;38249;48.920;12.882;2022-10-18T01:00:59;6.75;;;4.70;;
52306;SDS011;38249;48.920;12.882;2022-10-18T01:03:25;52.88;;;33.28;;
52306;SDS011;38249;48.920;12.882;2022-10-18T01:05:51;20.45;;;12.30;;
52306;SDS011;38249;48.920;12.882;2022-10-18T01:08:28;36.72;;;20.25;;
52306;SDS011;38249;48.920;12.882;2022-10-18T01:10:59;51.65;;;28.05;;
52306;SDS011;38249;48.920;12.882;2022-10-18T01:16:37;9.95;;;5.10;;
52306;SDS011;38249;48.920;12.882;2022-10-18T01:19:06;7.82;;;5.30;;
52306;SDS011;38249;48.920;12.882;2022-10-18T01:21:37;9.55;;;4.80;;
52306;SDS011;38249;48.920;12.882;2022-10-18T01:27:00;6.88;;;5.07;;
52306;SDS011;38249;48.920;12.882;2022-10-18T01:29:31;7.05;;;5.07;;
52306;SDS011;38249;48.920;12.882;2022-10-18T01:32:05;6.60;;;4.47;;
52306;SDS011;38249;48.920;12.882;2022-10-18T01:34:35;8.02;;;4.90;;
52306;SDS011;38249;48.920;12.882;2022-10-18T01:37:03;9.88;;;5.82;;
52306;SDS011;38249;48.920;12.882;2022-10-18T01:39:30;9.25;;;5.10;;
52306;SDS011;38249;48.920;12.882;2022-10-18T01:41:57;9.82;;;5.13;;
52306;SDS011;38249;48.920;12.882;2022-10-18T01:44:25;7.50;;;4.90;;
52306;SDS011;38249;48.920;12.882;2022-10-18T01:46:52;6.47;;;4.40;;
52306;SDS011;38249;48.920;12.882;2022-10-18T01:49:20;8.27;;;4.68;;
52306;SDS011;38249;48.920;12.882;2022-10-18T01:51:46;7.53;;;4.97;;
52306;SDS011;38249;48.920;12.882;2022-10-18T01:54:14;10.88;;;5.60;;
52306;SDS011;38249;48.920;12.882;2022-10-18T01:56:43;7.50;;;5.60;;
52306;SDS011;38249;48.920;12.882;2022-10-18T02:01:54;7.13;;;5.28;;
52306;SDS011;38249;48.920;12.882;2022-10-18T02:04:29;9.13;;;5.10;;
52306;SDS011;38249;48.920;12.882;2022-10-18T02:06:59;8.77;;;5.47;;
52306;SDS011;38249;48.920;12.882;2022-10-18T02:09:27;7.13;;;5.13;;
52306;SDS011;38249;48.920;12.882;2022-10-18T02:11:55;8.80;;;5.32;;
52306;SDS011;38249;48.920;12.882;2022-10-18T02:14:22;10.15;;;6.20;;
52306;SDS011;38249;48.920;12.882;2022-10-18T02:16:51;10.40;;;6.88;;
52306;SDS011;38249;48.920;12.882;2022-10-18T02:19:19;15.07;;;6.60;;
52306;SDS011;38249;48.920;12.882;2022-10-18T02:21:50;9.55;;;6.57;;
52306;SDS011;38249;48.920;12.882;2022-10-18T02:24:18;11.70;;;5.82;;
52306;SDS011;38249;48.920;12.882;2022-10-18T02:26:46;7.95;;;5.40;;
52306;SDS011;38249;48.920;12.882;2022-10-18T02:29:12;10.88;;;6.70;;
52306;SDS011;38249;48.920;12.882;2022-10-18T02:31:40;13.15;;;6.97;;
52306;SDS011;38249;48.920;12.882;2022-10-18T02:34:09;13.10;;;7.47;;
52306;SDS011;38249;48.920;12.882;2022-10-18T02:36:42;10.27;;;6.87;;
52306;SDS011;38249;48.920;12.882;2022-10-18T02:39:12;15.63;;;7.68;;
52306;SDS011;38249;48.920;12.882;2022-10-18T02:41:39;13.45;;;7.40;;
52306;SDS011;38249;48.920;12.882;2022-10-18T02:44:05;14.23;;;8.02;;
52306;SDS011;38249;48.920;12.882;2022-10-18T02:46:32;14.07;;;6.82;;
52306;SDS011;38249;48.920;12.882;2022-10-18T02:48:59;9.85;;;6.10;;
52306;SDS011;38249;48.920;12.882;2022-10-18T02:51:25;11.23;;;7.18;;
52306;SDS011;38249;48.920;12.882;2022-10-18T02:53:52;15.07;;;6.85;;
52306;SDS011;38249;48.920;12.882;2022-10-18T02:56:19;16.00;;;5.97;;
52306;SDS011;38249;48.920;12.882;2022-10-18T02:58:46;10.68;;;6.15;;
52306;SDS011;38249;48.920;12.882;2022-10-18T03:01:12;13.82;;;7.18;;
52306;SDS011;38249;48.920;12.882;2022-10-18T03:03:38;15.10;;;7.22;;
52306;SDS011;38249;48.920;12.882;2022-10-18T03:06:04;17.52;;;7.50;;
52306;SDS011;38249;48.920;12.882;2022-10-18T03:08:31;33.28;;;17.30;;
52306;SDS011;38249;48.920;12.882;2022-10-18T03:10:57;35.33;;;20.40;;
52306;SDS011;38249;48.920;12.882;2022-10-18T03:13:25;40.35;;;25.45;;
52306;SDS011;38249;48.920;12.882;2022-10-18T03:15:51;67.60;;;39.97;;
52306;SDS011;38249;48.920;12.882;2022-10-18T03:18:17;44.50;;;16.55;;
52306;SDS011;38249;48.920;12.882;2022-10-18T03:20:44;40.28;;;26.15;;
52306;SDS011;38249;48.920;12.882;2022-10-18T03:23:10;43.92;;;26.30;;
52306;SDS011;38249;48.920;12.882;2022-10-18T03:25:36;15.75;;;10.90;;
52306;SDS011;38249;48.920;12.882;2022-10-18T03:28:03;20.15;;;13.30;;
52306;SDS011;38249;48.920;12.882;2022-10-18T03:30:31;32.05;;;21.17;;
52306;SDS011;38249;48.920;12.882;2022-10-18T03:32:57;34.85;;;22.25;;
52306;SDS011;38249;48.920;12.882;2022-10-18T03:35:23;21.23;;;13.50;;
52306;SDS011;38249;48.920;12.882;2022-10-18T03:37:50;17.45;;;10.43;;
52306;SDS011;38249;48.920;12.882;2022-10-18T03:40:16;25.13;;;17.10;;
52306;SDS011;38249;48.920;12.882;2022-10-18T03:42:42;13.40;;;9.57;;
52306;SDS011;38249;48.920;12.882;2022-10-18T03:45:09;13.10;;;9.88;;
52306;SDS011;38249;48.920;12.882;2022-10-18T03:47:36;16.50;;;10.80;;
52306;SDS011;38249;48.920;12.882;2022-10-18T03:50:03;16.95;;;9.73;;
52306;SDS011;38249;48.920;12.882;2022-10-18T03:52:29;13.20;;;8.77;;
52306;SDS011;38249;48.920;12.882;2022-10-18T03:54:56;22.15;;;12.10;;
52306;SDS011;38249;48.920;12.882;2022-10-18T03:57:22;20.38;;;13.38;;
52306;SDS011;38249;48.920;12.882;2022-10-18T03:59:48;15.50;;;10.55;;
52306;SDS011;38249;48.920;12.882;2022-10-18T04:02:15;17.83;;;11.20;;
52306;SDS011;38249;48.920;12.882;2022-10-18T04:04:42;16.98;;;8.88;;
52306;SDS011;38249;48.920;12.882;2022-10-18T04:07:09;11.98;;;7.75;;
52306;SDS011;38249;48.920;12.882;2022-10-18T04:09:35;17.05;;;10.68;;
52306;SDS011;38249;48.920;12.882;2022-10-18T04:12:01;15.07;;;10.77;;
52306;SDS011;38249;48.920;12.882;2022-10-18T04:14:28;15.27;;;8.57;;
52306;SDS011;38249;48.920;12.882;2022-10-18T04:16:54;15.23;;;9.32;;
52306;SDS011;38249;48.920;12.882;2022-10-18T04:19:20;26.92;;;19.65;;
52306;SDS011;38249;48.920;12.882;2022-10-18T04:21:48;35.35;;;24.42;;
52306;SDS011;38249;48.920;12.882;2022-10-18T04:24:15;27.05;;;18.90;;
52306;SDS011;38249;48.920;12.882;2022-10-18T04:26:41;23.73;;;18.13;;
52306;SDS011;38249;48.920;12.882;2022-10-18T04:29:07;14.70;;;8.90;;
52306;SDS011;38249;48.920;12.882;2022-10-18T04:31:34;14.60;;;8.07;;
52306;SDS011;38249;48.920;12.882;2022-10-18T04:34:00;23.55;;;15.88;;
52306;SDS011;38249;48.920;12.882;2022-10-18T04:36:28;15.52;;;9.18;;
52306;SDS011;38249;48.920;12.882;2022-10-18T04:38:56;15.77;;;8.77;;
52306;SDS011;38249;48.920;12.882;2022-10-18T04:41:22;17.13;;;10.95;;
52306;SDS011;38249;48.920;12.882;2022-10-18T04:43:48;15.50;;;9.75;;
52306;SDS011;38249;48.920;12.882;2022-10-18T04:46:15;11.13;;;7.55;;
52306;SDS011;38249;48.920;12.882;2022-10-18T04:48:41;16.35;;;9.10;;
52306;SDS011;38249;48.920;12.882;2022-10-18T04:51:07;11.52;;;6.55;;
52306;SDS011;38249;48.920;12.882;2022-10-18T04:53:34;14.30;;;8.40;;
52306;SDS011;38249;48.920;12.882;2022-10-18T04:56:01;14.82;;;10.05;;
52306;SDS011;38249;48.920;12.882;2022-10-18T04:58:28;11.40;;;7.22;;
52306;SDS011;38249;48.920;12.882;2022-10-18T05:00:54;11.20;;;6.25;;
52306;SDS011;38249;48.920;12.882;2022-10-18T05:03:20;18.33;;;12.90;;
52306;SDS011;38249;48.920;12.882;2022-10-18T05:05:47;12.68;;;8.20;;
52306;SDS011;38249;48.920;12.882;2022-10-18T05:08:13;12.63;;;8.20;;
52306;SDS011;38249;48.920;12.882;2022-10-18T05:10:39;14.82;;;7.90;;
52306;SDS011;38249;48.920;12.882;2022-10-18T05:13:07;15.00;;;8.75;;
52306;SDS011;38249;48.920;12.882;2022-10-18T05:15:33;20.77;;;9.30;;
52306;SDS011;38249;48.920;12.882;2022-10-18T05:18:00;12.93;;;9.90;;
52306;SDS011;38249;48.920;12.882;2022-10-18T05:20:26;9.60;;;5.63;;
52306;SDS011;38249;48.920;12.882;2022-10-18T05:22:52;11.48;;;6.18;;
52306;SDS011;38249;48.920;12.882;2022-10-18T05:25:19;12.20;;;7.82;;
52306;SDS011;38249;48.920;12.882;2022-10-18T05:27:45;10.13;;;5.78;;
52306;SDS011;38249;48.920;12.882;2022-10-18T05:30:13;11.27;;;6.25;;
52306;SDS011;38249;48.920;12.882;2022-10-18T05:32:39;9.35;;;5.10;;
52306;SDS011;38249;48.920;12.882;2022-10-18T05:35:06;10.07;;;6.10;;
52306;SDS011;38249;48.920;12.882;2022-10-18T05:37:32;11.40;;;6.82;;
52306;SDS011;38249;48.920;12.882;2022-10-18T05:39:58;19.77;;;9.35;;
52306;SDS011;38249;48.920;12.882;2022-10-18T05:42:25;11.80;;;6.35;;
52306;SDS011;38249;48.920;12.882;2022-10-18T05:44:51;12.43;;;7.60;;
52306;SDS011;38249;48.920;12.882;2022-10-18T05:47:19;15.40;;;8.88;;
52306;SDS011;38249;48.920;12.882;2022-10-18T05:49:45;28.20;;;9.48;;
52306;SDS011;38249;48.920;12.882;2022-10-18T05:52:11;12.80;;;6.20;;
52306;SDS011;38249;48.920;12.882;2022-10-18T05:54:38;10.93;;;5.43;;
52306;SDS011;38249;48.920;12.882;2022-10-18T05:57:05;11.57;;;6.60;;
52306;SDS011;38249;48.920;12.882;2022-10-18T05:59:31;8.82;;;6.65;;
52306;SDS011;38249;48.920;12.882;2022-10-18T06:01:58;14.05;;;6.75;;
52306;SDS011;38249;48.920;12.882;2022-10-18T06:04:25;10.88;;;6.25;;
52306;SDS011;38249;48.920;12.882;2022-10-18T06:06:51;10.30;;;6.00;;
52306;SDS011;38249;48.920;12.882;2022-10-18T06:09:20;22.63;;;8.50;;
52306;SDS011;38249;48.920;12.882;2022-10-18T06:11:46;12.82;;;7.18;;
52306;SDS011;38249;48.920;12.882;2022-10-18T06:14:12;9.40;;;8.20;;
52306;SDS011;38249;48.920;12.882;2022-10-18T06:16:38;12.02;;;7.85;;
52306;SDS011;38249;48.920;12.882;2022-10-18T06:19:05;11.90;;;8.35;;
52306;SDS011;38249;48.920;12.882;2022-10-18T06:21:33;13.20;;;8.02;;
52306;SDS011;38249;48.920;12.882;2022-10-18T06:23:59;11.90;;;7.75;;
52306;SDS011;38249;48.920;12.882;2022-10-18T06:26:26;11.82;;;8.35;;
52306;SDS011;38249;48.920;12.882;2022-10-18T06:28:52;10.90;;;8.02;;
52306;SDS011;38249;48.920;12.882;2022-10-18T06:31:18;18.27;;;9.60;;
52306;SDS011;38249;48.920;12.882;2022-10-18T06:33:45;16.70;;;8.40;;
52306;SDS011;38249;48.920;12.882;2022-10-18T06:36:12;10.85;;;7.63;;
52306;SDS011;38249;48.920;12.882;2022-10-18T06:38:40;11.18;;;7.15;;
52306;SDS011;38249;48.920;12.882;2022-10-18T06:41:06;14.73;;;7.50;;
52306;SDS011;38249;48.920;12.882;2022-10-18T06:43:34;10.23;;;7.45;;
52306;SDS011;38249;48.920;12.882;2022-10-18T06:46:01;17.33;;;9.82;;
52306;SDS011;38249;48.920;12.882;2022-10-18T06:48:27;17.67;;;10.65;;
52306;SDS011;38249;48.920;12.882;2022-10-18T06:50:54;20.48;;;10.50;;
52306;SDS011;38249;48.920;12.882;2022-10-18T06:53:21;15.38;;;9.82;;
52306;SDS011;38249;48.920;12.882;2022-10-18T06:55:49;14.88;;;9.18;;
52306;SDS011;38249;48.920;12.882;2022-10-18T06:58:15;13.27;;;8.80;;
52306;SDS011;38249;48.920;12.882;2022-10-18T07:00:41;16.67;;;10.35;;
52306;SDS011;38249;48.920;12.882;2022-10-18T07:03:09;15.77;;;10.63;;
52306;SDS011;38249;48.920;12.882;2022-10-18T07:05:35;13.05;;;9.80;;
52306;SDS011;38249;48.920;12.882;2022-10-18T07:08:02;11.85;;;8.25;;
52306;SDS011;38249;48.920;12.882;2022-10-18T07:10:28;13.57;;;8.60;;
52306;SDS011;38249;48.920;12.882;2022-10-18T07:12:56;13.32;;;9.20;;
52306;SDS011;38249;48.920;12.882;2022-10-18T07:15:22;10.23;;;7.60;;
52306;SDS011;38249;48.920;12.882;2022-10-18T07:17:48;11.20;;;6.53;;
52306;SDS011;38249;48.920;12.882;2022-10-18T07:20:15;13.43;;;8.18;;
52306;SDS011;38249;48.920;12.882;2022-10-18T07:22:41;14.07;;;7.85;;
52306;SDS011;38249;48.920;12.882;2022-10-18T07:25:08;10.00;;;7.03;;
52306;SDS011;38249;48.920;12.882;2022-10-18T07:27:35;15.30;;;8.68;;
52306;SDS011;38249;48.920;12.882;2022-10-18T07:30:03;14.23;;;9.60;;
52306;SDS011;38249;48.920;12.882;2022-10-18T07:32:29;11.10;;;8.48;;
52306;SDS011;38249;48.920;12.882;2022-10-18T07:34:55;11.90;;;7.63;;
52306;SDS011;38249;48.920;12.882;2022-10-18T07:37:22;11.85;;;7.82;;
52306;SDS011;38249;48.920;12.882;2022-10-18T07:39:48;11.43;;;7.10;;
52306;SDS011;38249;48.920;12.882;2022-10-18T07:42:14;13.88;;;8.45;;
52306;SDS011;38249;48.920;12.882;2022-10-18T07:44:41;13.18;;;8.25;;
52306;SDS011;38249;48.920;12.882;2022-10-18T07:47:08;11.70;;;8.18;;
52306;SDS011;38249;48.920;12.882;2022-10-18T07:49:35;11.27;;;7.75;;
52306;SDS011;38249;48.920;12.882;2022-10-18T07:52:01;9.00;;;7.55;;
52306;SDS011;38249;48.920;12.882;2022-10-18T07:54:27;11.25;;;7.93;;
52306;SDS011;38249;48.920;12.882;2022-10-18T07:56:54;14.38;;;8.45;;
52306;SDS011;38249;48.920;12.882;2022-10-18T07:59:20;13.20;;;7.60;;
52306;SDS011;38249;48.920;12.882;2022-10-18T08:01:46;11.35;;;8.18;;
52306;SDS011;38249;48.920;12.882;2022-10-18T08:04:14;14.40;;;7.72;;
52306;SDS011;38249;48.920;12.882;2022-10-18T08:06:40;15.32;;;9.35;;
52306;SDS011;38249;48.920;12.882;2022-10-18T08:09:07;10.70;;;7.88;;
52306;SDS011;38249;48.920;12.882;2022-10-18T08:11:33;10.10;;;8.13;;
52306;SDS011;38249;48.920;12.882;2022-10-18T08:14:00;10.43;;;7.43;;
52306;SDS011;38249;48.920;12.882;2022-10-18T08:16:27;10.57;;;7.90;;
52306;SDS011;38249;48.920;12.882;2022-10-18T08:18:55;8.70;;;7.20;;
52306;SDS011;38249;48.920;12.882;2022-10-18T08:21:23;11.57;;;8.43;;
52306;SDS011;38249;48.920;12.882;2022-10-18T08:23:50;8.68;;;7.60;;
52306;SDS011;38249;48.920;12.882;2022-10-18T08:26:18;18.30;;;8.93;;
52306;SDS011;38249;48.920;12.882;2022-10-18T08:28:45;9.65;;;7.72;;
52306;SDS011;38249;48.920;12.882;2022-10-18T08:31:11;10.75;;;7.45;;
52306;SDS011;38249;48.920;12.882;2022-10-18T08:33:38;9.75;;;7.63;;
52306;SDS011;38249;48.920;12.882;2022-10-18T08:36:05;11.50;;;7.90;;
52306;SDS011;38249;48.920;12.882;2022-10-18T08:38:34;12.65;;;8.32;;
52306;SDS011;38249;48.920;12.882;2022-10-18T08:41:01;9.93;;;8.13;;
52306;SDS011;38249;48.920;12.882;2022-10-18T08:43:30;11.05;;;7.32;;
52306;SDS011;38249;48.920;12.882;2022-10-18T08:45:58;19.40;;;13.05;;
52306;SDS011;38249;48.920;12.882;2022-10-18T08:48:28;11.43;;;8.82;;
52306;SDS011;38249;48.920;12.882;2022-10-18T08:50:56;12.70;;;8.30;;
52306;SDS011;38249;48.920;12.882;2022-10-18T08:53:24;15.40;;;10.80;;
52306;SDS011;38249;48.920;12.882;2022-10-18T08:55:54;13.27;;;8.32;;
52306;SDS011;38249;48.920;12.882;2022-10-18T08:58:23;12.43;;;8.38;;
52306;SDS011;38249;48.920;12.882;2022-10-18T09:00:53;12.77;;;9.63;;
52306;SDS011;38249;48.920;12.882;2022-10-18T09:03:26;12.45;;;8.13;;
52306;SDS011;38249;48.920;12.882;2022-10-18T09:05:55;11.32;;;8.52;;
52306;SDS011;38249;48.920;12.882;2022-10-18T09:08:39;11.20;;;8.10;;
52306;SDS011;38249;48.920;12.882;2022-10-18T09:11:14;13.40;;;9.05;;
52306;SDS011;38249;48.920;12.882;2022-10-18T09:16:32;13.23;;;8.57;;
52306;SDS011;38249;48.920;12.882;2022-10-18T09:19:04;13.95;;;9.20;;
52306;SDS011;38249;48.920;12.882;2022-10-18T09:21:36;13.27;;;9.20;;
52306;SDS011;38249;48.920;12.882;2022-10-18T09:24:08;20.42;;;10.63;;
52306;SDS011;38249;48.920;12.882;2022-10-18T09:26:39;14.65;;;9.07;;
52306;SDS011;38249;48.920;12.882;2022-10-18T09:29:09;13.15;;;8.90;;
52306;SDS011;38249;48.920;12.882;2022-10-18T09:34:09;12.77;;;9.30;;
52306;SDS011;38249;48.920;12.882;2022-10-18T09:36:38;14.38;;;9.73;;
52306;SDS011;38249;48.920;12.882;2022-10-18T09:39:08;14.32;;;9.10;;
52306;SDS011;38249;48.920;12.882;2022-10-18T09:41:38;10.93;;;8.57;;
52306;SDS011;38249;48.920;12.882;2022-10-18T09:44:09;12.82;;;9.27;;
52306;SDS011;38249;48.920;12.882;2022-10-18T09:46:38;12.45;;;8.77;;
52306;SDS011;38249;48.920;12.882;2022-10-18T09:49:06;14.02;;;9.32;;
52306;SDS011;38249;48.920;12.882;2022-10-18T09:51:36;16.33;;;9.48;;
52306;SDS011;38249;48.920;12.882;2022-10-18T09:54:07;12.85;;;8.82;;
52306;SDS011;38249;48.920;12.882;2022-10-18T09:56:38;11.88;;;8.88;;
52306;SDS011;38249;48.920;12.882;2022-10-18T09:59:07;13.60;;;8.30;;
52306;SDS011;38249;48.920;12.882;2022-10-18T10:01:36;13.05;;;8.48;;
52306;SDS011;38249;48.920;12.882;2022-10-18T10:04:03;10.90;;;8.70;;
52306;SDS011;38249;48.920;12.882;2022-10-18T10:06:30;11.35;;;9.32;;
52306;SDS011;38249;48.920;12.882;2022-10-18T10:08:59;11.93;;;9.27;;
52306;SDS011;38249;48.920;12.882;2022-10-18T10:11:27;12.63;;;9.02;;
52306;SDS011;38249;48.920;12.882;2022-10-18T10:13:56;11.05;;;8.82;;
52306;SDS011;38249;48.920;12.882;2022-10-18T10:16:24;11.15;;;8.98;;
52306;SDS011;38249;48.920;12.882;2022-10-18T10:18:51;12.18;;;9.35;;
52306;SDS011;38249;48.920;12.882;2022-10-18T10:21:18;12.35;;;8.90;;
52306;SDS011;38249;48.920;12.882;2022-10-18T10:23:48;9.85;;;8.32;;
52306;SDS011;38249;48.920;12.882;2022-10-18T10:26:19;9.55;;;8.20;;
52306;SDS011;38249;48.920;12.882;2022-10-18T10:28:47;10.43;;;8.10;;
52306;SDS011;38249;48.920;12.882;2022-10-18T10:31:24;10.93;;;8.52;;
52306;SDS011;38249;48.920;12.882;2022-10-18T10:33:57;10.95;;;8.32;;
52306;SDS011;38249;48.920;12.882;2022-10-18T10:36:23;8.90;;;7.38;;
52306;SDS011;38249;48.920;12.882;2022-10-18T10:39:00;9.80;;;7.75;;
52306;SDS011;38249;48.920;12.882;2022-10-18T10:41:27;13.27;;;8.13;;
52306;SDS011;38249;48.920;12.882;2022-10-18T10:43:53;15.77;;;10.13;;
52306;SDS011;38249;48.920;12.882;2022-10-18T10:46:21;22.42;;;15.57;;
52306;SDS011;38249;48.920;12.882;2022-10-18T10:48:50;12.82;;;9.23;;
52306;SDS011;38249;48.920;12.882;2022-10-18T10:51:22;13.88;;;8.95;;
52306;SDS011;38249;48.920;12.882;2022-10-18T10:53:56;11.70;;;8.20;;
52306;SDS011;38249;48.920;12.882;2022-10-18T10:56:24;11.75;;;8.80;;
52306;SDS011;38249;48.920;12.882;2022-10-18T10:58:51;10.73;;;8.23;;
52306;SDS011;38249;48.920;12.882;2022-10-18T11:01:23;12.32;;;8.80;;
52306;SDS011;38249;48.920;12.882;2022-10-18T11:03:51;14.55;;;8.38;;
52306;SDS011;38249;48.920;12.882;2022-10-18T11:09:03;10.57;;;8.60;;
52306;SDS011;38249;48.920;12.882;2022-10-18T11:11:32;9.68;;;8.50;;
52306;SDS011;38249;48.920;12.882;2022-10-18T11:14:01;11.98;;;9.27;;
52306;SDS011;38249;48.920;12.882;2022-10-18T11:16:32;12.25;;;9.20;;
52306;SDS011;38249;48.920;12.882;2022-10-18T11:18:59;11.55;;;8.65;;
52306;SDS011;38249;48.920;12.882;2022-10-18T11:21:28;11.48;;;9.20;;
52306;SDS011;38249;48.920;12.882;2022-10-18T11:23:56;13.07;;;9.25;;
52306;SDS011;38249;48.920;12.882;2022-10-18T11:26:28;13.02;;;8.90;;
52306;SDS011;38249;48.920;12.882;2022-10-18T11:29:08;12.48;;;8.75;;
52306;SDS011;38249;48.920;12.882;2022-10-18T11:31:39;16.48;;;10.13;;
52306;SDS011;38249;48.920;12.882;2022-10-18T11:34:14;11.52;;;9.00;;
52306;SDS011;38249;48.920;12.882;2022-10-18T11:36:44;14.57;;;8.52;;
52306;SDS011;38249;48.920;12.882;2022-10-18T11:39:15;9.38;;;8.40;;
52306;SDS011;38249;48.920;12.882;2022-10-18T11:41:45;11.73;;;8.40;;
52306;SDS011;38249;48.920;12.882;2022-10-18T11:44:16;12.77;;;8.65;;
52306;SDS011;38249;48.920;12.882;2022-10-18T11:46:49;11.45;;;8.40;;
52306;SDS011;38249;48.920;12.882;2022-10-18T11:49:24;10.98;;;8.20;;
52306;SDS011;38249;48.920;12.882;2022-10-18T11:51:55;12.47;;;8.60;;
52306;SDS011;38249;48.920;12.882;2022-10-18T11:59:35;12.70;;;8.55;;
52306;SDS011;38249;48.920;12.882;2022-10-18T12:02:12;10.07;;;8.98;;
52306;SDS011;38249;48.920;12.882;2022-10-18T12:04:44;10.90;;;9.75;;
52306;SDS011;38249;48.920;12.882;2022-10-18T12:07:15;11.05;;;9.85;;
52306;SDS011;38249;48.920;12.882;2022-10-18T12:09:44;11.55;;;9.48;;
52306;SDS011;38249;48.920;12.882;2022-10-18T12:12:13;13.68;;;9.80;;
52306;SDS011;38249;48.920;12.882;2022-10-18T12:14:43;11.98;;;9.75;;
52306;SDS011;38249;48.920;12.882;2022-10-18T12:17:15;11.90;;;10.43;;
52306;SDS011;38249;48.920;12.882;2022-10-18T12:19:43;11.60;;;9.27;;
52306;SDS011;38249;48.920;12.882;2022-10-18T12:22:12;12.60;;;9.98;;
52306;SDS011;38249;48.920;12.882;2022-10-18T12:24:41;12.13;;;9.45;;
52306;SDS011;38249;48.920;12.882;2022-10-18T12:27:08;11.07;;;9.40;;
52306;SDS011;38249;48.920;12.882;2022-10-18T12:29:38;12.20;;;10.15;;
52306;SDS011;38249;48.920;12.882;2022-10-18T12:32:07;11.05;;;8.88;;
52306;SDS011;38249;48.920;12.882;2022-10-18T12:34:38;14.43;;;9.70;;
52306;SDS011;38249;48.920;12.882;2022-10-18T12:37:21;12.73;;;10.43;;
52306;SDS011;38249;48.920;12.882;2022-10-18T12:39:50;13.25;;;9.63;;
52306;SDS011;38249;48.920;12.882;2022-10-18T12:42:19;13.50;;;10.63;;
52306;SDS011;38249;48.920;12.882;2022-10-18T12:44:46;13.50;;;10.55;;
52306;SDS011;38249;48.920;12.882;2022-10-18T12:47:19;13.45;;;10.02;;
52306;SDS011;38249;48.920;12.882;2022-10-18T12:49:47;12.65;;;10.38;;
52306;SDS011;38249;48.920;12.882;2022-10-18T12:55:00;11.60;;;10.40;;
52306;SDS011;38249;48.920;12.882;2022-10-18T12:57:27;12.27;;;9.70;;
52306;SDS011;38249;48.920;12.882;2022-10-18T13:08:33;12.35;;;10.23;;
52306;SDS011;38249;48.920;12.882;2022-10-18T13:11:13;13.50;;;11.10;;
52306;SDS011;38249;48.920;12.882;2022-10-18T13:13:43;12.63;;;9.77;;
52306;SDS011;38249;48.920;12.882;2022-10-18T13:16:13;11.93;;;10.55;;
52306;SDS011;38249;48.920;12.882;2022-10-18T13:18:48;15.52;;;11.25;;
52306;SDS011;38249;48.920;12.882;2022-10-18T13:21:19;13.32;;;10.73;;
52306;SDS011;38249;48.920;12.882;2022-10-18T13:26:35;15.48;;;11.07;;
52306;SDS011;38249;48.920;12.882;2022-10-18T13:29:07;18.25;;;12.25;;
52306;SDS011;38249;48.920;12.882;2022-10-18T13:31:36;14.15;;;11.55;;
52306;SDS011;38249;48.920;12.882;2022-10-18T13:34:21;13.25;;;11.30;;
52306;SDS011;38249;48.920;12.882;2022-10-18T13:36:54;13.25;;;10.65;;
52306;SDS011;38249;48.920;12.882;2022-10-18T13:39:20;17.65;;;12.73;;
52306;SDS011;38249;48.920;12.882;2022-10-18T13:44:33;16.02;;;13.98;;
52306;SDS011;38249;48.920;12.882;2022-10-18T13:49:38;17.75;;;13.57;;
52306;SDS011;38249;48.920;12.882;2022-10-18T13:52:09;16.85;;;14.75;;
52306;SDS011;38249;48.920;12.882;2022-10-18T13:54:45;20.83;;;14.82;;
52306;SDS011;38249;48.920;12.882;2022-10-18T13:57:19;17.45;;;13.80;;
52306;SDS011;38249;48.920;12.882;2022-10-18T13:59:56;16.50;;;13.38;;
52306;SDS011;38249;48.920;12.882;2022-10-18T14:05:13;18.30;;;15.05;;
52306;SDS011;38249;48.920;12.882;2022-10-18T14:07:41;19.27;;;13.93;;
52306;SDS011;38249;48.920;12.882;2022-10-18T14:10:08;15.57;;;13.80;;
52306;SDS011;38249;48.920;12.882;2022-10-18T14:12:40;19.33;;;15.02;;
52306;SDS011;38249;48.920;12.882;2022-10-18T14:15:13;16.70;;;14.18;;
52306;SDS011;38249;48.920;12.882;2022-10-18T14:17:40;19.48;;;15.77;;
52306;SDS011;38249;48.920;12.882;2022-10-18T14:20:14;18.83;;;14.73;;
52306;SDS011;38249;48.920;12.882;2022-10-18T14:22:42;16.83;;;14.05;;
52306;SDS011;38249;48.920;12.882;2022-10-18T14:25:17;17.25;;;14.18;;
52306;SDS011;38249;48.920;12.882;2022-10-18T14:27:43;17.08;;;14.70;;
52306;SDS011;38249;48.920;12.882;2022-10-18T14:30:13;20.80;;;15.85;;
52306;SDS011;38249;48.920;12.882;2022-10-18T14:32:41;21.55;;;16.33;;
52306;SDS011;38249;48.920;12.882;2022-10-18T14:35:14;19.35;;;15.38;;
52306;SDS011;38249;48.920;12.882;2022-10-18T14:37:41;19.55;;;14.73;;
52306;SDS011;38249;48.920;12.882;2022-10-18T14:40:21;18.80;;;14.98;;
52306;SDS011;38249;48.920;12.882;2022-10-18T14:42:50;18.58;;;15.35;;
52306;SDS011;38249;48.920;12.882;2022-10-18T14:45:18;16.90;;;14.40;;
52306;SDS011;38249;48.920;12.882;2022-10-18T14:47:45;17.02;;;14.43;;
52306;SDS011;38249;48.920;12.882;2022-10-18T14:50:19;17.80;;;15.52;;
52306;SDS011;38249;48.920;12.882;2022-10-18T14:52:45;20.15;;;15.88;;
52306;SDS011;38249;48.920;12.882;2022-10-18T14:55:12;19.88;;;15.90;;
52306;SDS011;38249;48.920;12.882;2022-10-18T14:57:41;18.92;;;15.73;;
52306;SDS011;38249;48.920;12.882;2022-10-18T15:00:12;22.65;;;19.48;;
52306;SDS011;38249;48.920;12.882;2022-10-18T15:02:43;22.90;;;17.00;;
52306;SDS011;38249;48.920;12.882;2022-10-18T15:05:17;26.65;;;20.85;;
52306;SDS011;38249;48.920;12.882;2022-10-18T15:07:44;21.55;;;15.27;;
52306;SDS011;38249;48.920;12.882;2022-10-18T15:10:13;20.17;;;15.30;;
52306;SDS011;38249;48.920;12.882;2022-10-18T15:12:41;18.52;;;14.07;;